createdAt,value
2019-03-03T00:00:22.268Z,4.80
2019-03-03T00:01:22.220Z,4.82
2019-03-03T00:02:22.210Z,4.84
2019-03-03T00:03:22.352Z,4.78
2019-03-03T00:04:22.189Z,4.80
2019-03-03T00:05:22.176Z,4.78
2019-03-03T00:06:22.203Z,4.80
2019-03-03T00:07:22.160Z,4.78
2019-03-03T00:08:22.145Z,4.78
2019-03-03T00:09:22.140Z,4.77
2019-03-03T00:10:22.122Z,4.86
2019-03-03T00:11:22.114Z,4.92
2019-03-03T00:12:22.137Z,4.82
2019-03-03T00:13:22.090Z,4.86
2019-03-03T00:14:22.079Z,4.89
2019-03-03T00:15:22.070Z,4.96
2019-03-03T00:16:22.058Z,4.85
2019-03-03T00:17:22.048Z,4.91
2019-03-03T00:18:22.074Z,4.97
2019-03-03T00:19:22.025Z,4.94
2019-03-03T00:20:22.014Z,4.92
2019-03-03T00:21:22.003Z,4.96
2019-03-03T00:22:21.991Z,4.96
2019-03-03T00:23:21.981Z,4.96
2019-03-03T00:24:29.047Z,5.07
2019-03-03T00:25:21.958Z,5.06
2019-03-03T00:26:21.948Z,5.09
2019-03-03T00:27:21.939Z,5.07
2019-03-03T00:28:21.936Z,5.06
2019-03-03T00:29:21.915Z,5.10
2019-03-03T00:30:21.943Z,5.22
2019-03-03T00:31:21.892Z,5.20
2019-03-03T00:32:21.882Z,5.27
2019-03-03T00:33:21.883Z,5.24
2019-03-03T00:34:21.860Z,5.28
2019-03-03T00:35:21.849Z,5.36
2019-03-03T00:36:21.874Z,5.39
2019-03-03T00:37:21.827Z,5.39
2019-03-03T00:38:21.814Z,5.45
2019-03-03T00:39:21.806Z,5.51
2019-03-03T00:40:21.793Z,5.39
2019-03-03T00:41:21.781Z,5.51
2019-03-03T00:42:21.809Z,5.56
2019-03-03T00:43:21.761Z,5.56
2019-03-03T00:44:21.750Z,5.48
2019-03-03T00:45:21.742Z,5.56
2019-03-03T00:46:21.732Z,5.60
2019-03-03T00:47:21.717Z,5.56
2019-03-03T00:48:21.756Z,5.56
2019-03-03T00:49:21.694Z,5.58
2019-03-03T00:50:21.684Z,5.58
2019-03-03T00:51:21.671Z,5.61
2019-03-03T00:52:21.659Z,5.61
2019-03-03T00:53:21.648Z,5.65
2019-03-03T00:54:21.675Z,5.65
2019-03-03T00:55:21.626Z,5.61
2019-03-03T00:56:21.618Z,5.65
2019-03-03T00:57:21.605Z,5.74
2019-03-03T00:58:21.595Z,5.68
2019-03-03T00:59:21.582Z,5.76
2019-03-03T01:00:21.608Z,5.72
2019-03-03T01:01:21.560Z,5.79
2019-03-03T01:02:21.548Z,5.74
2019-03-03T01:03:21.538Z,5.74
2019-03-03T01:04:21.528Z,5.68
2019-03-03T01:05:21.517Z,5.74
2019-03-03T01:06:21.545Z,5.68
2019-03-03T01:07:21.499Z,5.81
2019-03-03T01:08:21.485Z,5.85
2019-03-03T01:09:21.475Z,5.90
2019-03-03T01:10:21.464Z,5.89
2019-03-03T01:11:21.454Z,5.83
2019-03-03T01:12:21.483Z,5.91
2019-03-03T01:13:21.433Z,5.90
2019-03-03T01:14:21.421Z,5.89
2019-03-03T01:15:21.410Z,5.83
2019-03-03T01:16:21.399Z,5.79
2019-03-03T01:17:21.393Z,5.82
2019-03-03T01:18:21.415Z,5.83
2019-03-03T01:19:21.375Z,5.82
2019-03-03T01:20:21.358Z,5.82
2019-03-03T01:21:21.346Z,5.81
2019-03-03T01:22:21.334Z,5.82
2019-03-03T01:23:21.324Z,5.85
2019-03-03T01:24:21.350Z,5.83
2019-03-03T01:25:21.303Z,5.81
2019-03-03T01:26:21.290Z,5.81
2019-03-03T01:27:21.280Z,5.81
2019-03-03T01:28:21.267Z,5.79
2019-03-03T01:29:21.257Z,5.83
2019-03-03T01:30:21.292Z,5.85
2019-03-03T01:31:21.236Z,5.83
2019-03-03T01:32:21.223Z,5.82
2019-03-03T01:33:21.213Z,5.82
2019-03-03T01:34:21.203Z,5.81
2019-03-03T01:35:21.193Z,5.79
2019-03-03T01:36:21.218Z,5.83
2019-03-03T01:37:21.168Z,5.86
2019-03-03T01:38:21.159Z,5.74
2019-03-03T01:39:21.148Z,5.76
2019-03-03T01:40:21.138Z,5.82
2019-03-03T01:41:21.129Z,5.83
2019-03-03T01:42:21.153Z,5.85
2019-03-03T01:43:21.105Z,5.79
2019-03-03T01:44:21.094Z,5.85
2019-03-03T01:45:21.084Z,5.82
2019-03-03T01:46:21.072Z,5.78
2019-03-03T01:47:21.062Z,5.79
2019-03-03T01:48:21.088Z,5.79
2019-03-03T01:49:21.046Z,5.76
2019-03-03T01:50:21.031Z,5.85
2019-03-03T01:51:21.024Z,5.82
2019-03-03T01:52:21.007Z,5.89
2019-03-03T01:53:21.000Z,5.78
2019-03-03T01:54:21.023Z,5.86
2019-03-03T01:55:20.975Z,5.86
2019-03-03T01:56:20.967Z,5.83
2019-03-03T01:57:20.956Z,5.89
2019-03-03T01:58:20.949Z,5.86
2019-03-03T01:59:20.940Z,5.90
2019-03-03T02:00:20.959Z,5.81
2019-03-03T02:01:20.912Z,5.94
2019-03-03T02:02:20.902Z,5.86
2019-03-03T02:03:20.891Z,5.94
2019-03-03T02:04:20.880Z,5.97
2019-03-03T02:05:20.873Z,5.93
2019-03-03T02:06:20.897Z,5.93
2019-03-03T02:07:20.848Z,5.86
2019-03-03T02:08:20.839Z,5.93
2019-03-03T02:09:20.830Z,5.91
2019-03-03T02:10:20.816Z,5.91
2019-03-03T02:11:20.806Z,5.97
2019-03-03T02:12:20.832Z,5.93
2019-03-03T02:13:20.783Z,5.96
2019-03-03T02:14:20.774Z,6.04
2019-03-03T02:15:20.764Z,6.04
2019-03-03T02:16:20.754Z,6.08
2019-03-03T02:17:20.745Z,5.99
2019-03-03T02:18:20.769Z,6.03
2019-03-03T02:19:20.721Z,6.04
2019-03-03T02:20:20.710Z,6.06
2019-03-03T02:21:20.698Z,5.97
2019-03-03T02:22:20.693Z,6.00
2019-03-03T02:23:20.679Z,6.08
2019-03-03T02:24:20.704Z,6.01
2019-03-03T02:25:20.658Z,6.04
2019-03-03T02:26:21.166Z,6.03
2019-03-03T02:27:20.635Z,6.09
2019-03-03T02:28:20.627Z,6.08
2019-03-03T02:29:20.614Z,6.06
2019-03-03T02:30:20.642Z,6.09
2019-03-03T02:31:20.594Z,6.11
2019-03-03T02:32:20.584Z,6.15
2019-03-03T02:33:20.573Z,6.17
2019-03-03T02:34:20.566Z,6.17
2019-03-03T02:35:20.550Z,6.17
2019-03-03T02:36:20.582Z,6.19
2019-03-03T02:37:20.531Z,6.21
2019-03-03T02:38:20.526Z,6.12
2019-03-03T02:39:20.521Z,6.15
2019-03-03T02:40:20.501Z,6.09
2019-03-03T02:41:20.495Z,6.12
2019-03-03T02:42:20.515Z,6.11
2019-03-03T02:43:20.465Z,6.19
2019-03-03T02:44:20.466Z,6.19
2019-03-03T02:45:20.454Z,6.12
2019-03-03T02:46:20.436Z,6.18
2019-03-03T02:47:20.423Z,6.18
2019-03-03T02:48:20.448Z,6.11
2019-03-03T02:49:20.401Z,6.15
2019-03-03T02:50:20.402Z,6.15
2019-03-03T02:51:20.387Z,6.17
2019-03-03T02:52:20.367Z,6.18
2019-03-03T02:53:20.360Z,6.14
2019-03-03T02:54:20.384Z,6.15
2019-03-03T02:55:20.336Z,6.17
2019-03-03T02:56:20.329Z,6.15
2019-03-03T02:57:20.315Z,6.19
2019-03-03T02:58:20.304Z,6.14
2019-03-03T02:59:20.304Z,6.15
2019-03-03T03:00:20.323Z,6.18
2019-03-03T03:01:20.273Z,6.14
2019-03-03T03:02:20.267Z,6.15
2019-03-03T03:03:20.251Z,6.11
2019-03-03T03:04:20.241Z,6.15
2019-03-03T03:05:20.296Z,6.18
2019-03-03T03:06:20.257Z,6.18
2019-03-03T03:07:20.233Z,6.18
2019-03-03T03:08:20.199Z,6.22
2019-03-03T03:09:20.186Z,6.30
2019-03-03T03:10:20.183Z,6.22
2019-03-03T03:11:20.163Z,6.15
2019-03-03T03:12:20.196Z,6.21
2019-03-03T03:13:20.158Z,6.21
2019-03-03T03:14:20.130Z,6.21
2019-03-03T03:15:20.120Z,6.21
2019-03-03T03:16:20.120Z,6.22
2019-03-03T03:17:20.101Z,6.28
2019-03-03T03:18:20.125Z,6.19
2019-03-03T03:19:20.079Z,6.27
2019-03-03T03:20:20.066Z,6.31
2019-03-03T03:21:20.055Z,6.31
2019-03-03T03:22:20.046Z,6.31
2019-03-03T03:23:20.040Z,6.33
2019-03-03T03:24:20.061Z,6.34
2019-03-03T03:25:20.014Z,6.25
2019-03-03T03:26:20.005Z,6.30
2019-03-03T03:27:19.994Z,6.33
2019-03-03T03:28:19.983Z,6.27
2019-03-03T03:29:19.976Z,6.21
2019-03-03T03:30:20.010Z,6.40
2019-03-03T03:31:19.954Z,6.30
2019-03-03T03:32:19.941Z,6.43
2019-03-03T03:33:19.937Z,6.44
2019-03-03T03:34:19.928Z,6.44
2019-03-03T03:35:19.907Z,6.37
2019-03-03T03:36:19.935Z,6.38
2019-03-03T03:37:19.887Z,6.37
2019-03-03T03:38:19.879Z,6.38
2019-03-03T03:39:19.863Z,6.48
2019-03-03T03:40:19.852Z,6.46
2019-03-03T03:41:19.843Z,6.37
2019-03-03T03:42:19.871Z,6.36
2019-03-03T03:43:19.817Z,6.41
2019-03-03T03:44:19.811Z,6.46
2019-03-03T03:45:19.797Z,6.46
2019-03-03T03:46:19.788Z,6.44
2019-03-03T03:47:19.774Z,6.44
2019-03-03T03:48:19.800Z,6.49
2019-03-03T03:49:19.764Z,6.48
2019-03-03T03:50:19.741Z,6.52
2019-03-03T03:51:19.729Z,6.44
2019-03-03T03:52:19.722Z,6.51
2019-03-03T03:53:19.711Z,6.54
2019-03-03T03:54:19.734Z,6.55
2019-03-03T03:55:19.685Z,6.48
2019-03-03T03:56:19.676Z,6.44
2019-03-03T03:57:19.664Z,6.46
2019-03-03T03:58:19.654Z,6.58
2019-03-03T03:59:19.646Z,6.46
2019-03-03T04:00:19.671Z,6.46
2019-03-03T04:01:19.713Z,6.46
2019-03-03T04:02:19.610Z,6.48
2019-03-03T04:03:19.599Z,6.51
2019-03-03T04:04:19.592Z,6.44
2019-03-03T04:05:19.581Z,6.56
2019-03-03T04:06:19.610Z,6.51
2019-03-03T04:07:19.556Z,6.54
2019-03-03T04:08:19.544Z,6.59
2019-03-03T04:09:19.534Z,6.59
2019-03-03T04:10:19.523Z,6.56
2019-03-03T04:11:19.511Z,6.59
2019-03-03T04:12:19.543Z,6.61
2019-03-03T04:13:19.497Z,6.67
2019-03-03T04:14:19.476Z,6.61
2019-03-03T04:15:19.469Z,6.62
2019-03-03T04:16:19.458Z,6.67
2019-03-03T04:17:19.444Z,6.66
2019-03-03T04:18:19.467Z,6.62
2019-03-03T04:19:19.422Z,6.64
2019-03-03T04:20:19.411Z,6.61
2019-03-03T04:21:19.400Z,6.73
2019-03-03T04:22:19.398Z,6.69
2019-03-03T04:23:19.379Z,6.70
2019-03-03T04:24:19.408Z,6.67
2019-03-03T04:25:19.358Z,6.64
2019-03-03T04:26:19.346Z,6.67
2019-03-03T04:27:19.334Z,6.76
2019-03-03T04:28:19.325Z,6.74
2019-03-03T04:29:19.337Z,6.73
2019-03-03T04:30:19.338Z,6.76
2019-03-03T04:31:19.291Z,6.69
2019-03-03T04:32:19.280Z,6.74
2019-03-03T04:33:19.282Z,6.74
2019-03-03T04:34:19.263Z,6.79
2019-03-03T04:35:19.246Z,6.74
2019-03-03T04:36:19.272Z,6.76
2019-03-03T04:37:19.226Z,6.84
2019-03-03T04:38:19.219Z,6.79
2019-03-03T04:39:19.201Z,6.76
2019-03-03T04:40:19.189Z,6.88
2019-03-03T04:41:19.182Z,6.85
2019-03-03T04:42:19.207Z,6.79
2019-03-03T04:43:19.155Z,6.76
2019-03-03T04:44:19.147Z,6.80
2019-03-03T04:45:19.136Z,6.80
2019-03-03T04:46:19.127Z,6.88
2019-03-03T04:47:19.127Z,6.89
2019-03-03T04:48:19.136Z,6.92
2019-03-03T04:49:19.094Z,6.89
2019-03-03T04:50:19.080Z,6.99
2019-03-03T04:51:19.069Z,6.97
2019-03-03T04:52:19.057Z,6.92
2019-03-03T04:53:19.048Z,6.99
2019-03-03T04:54:19.075Z,6.89
2019-03-03T04:55:19.024Z,6.94
2019-03-03T04:56:19.023Z,6.94
2019-03-03T04:57:19.002Z,7.06
2019-03-03T04:58:18.993Z,7.02
2019-03-03T04:59:18.980Z,6.99
2019-03-03T05:00:19.008Z,7.10
2019-03-03T05:01:18.958Z,7.02
2019-03-03T05:02:18.948Z,7.05
2019-03-03T05:03:18.936Z,7.07
2019-03-03T05:04:18.926Z,7.10
2019-03-03T05:05:18.913Z,7.10
2019-03-03T05:06:18.939Z,7.09
2019-03-03T05:07:18.894Z,7.16
2019-03-03T05:08:18.882Z,7.10
2019-03-03T05:09:18.871Z,7.16
2019-03-03T05:10:18.862Z,7.13
2019-03-03T05:11:18.853Z,7.27
2019-03-03T05:12:18.878Z,7.23
2019-03-03T05:13:18.882Z,7.23
2019-03-03T05:14:18.819Z,7.28
2019-03-03T05:15:18.808Z,7.30
2019-03-03T05:16:18.798Z,7.30
2019-03-03T05:17:18.787Z,7.37
2019-03-03T05:18:18.813Z,7.31
2019-03-03T05:19:18.769Z,7.48
2019-03-03T05:20:18.754Z,7.45
2019-03-03T05:21:18.743Z,7.43
2019-03-03T05:22:18.733Z,7.50
2019-03-03T05:23:18.724Z,7.48
2019-03-03T05:24:18.748Z,7.42
2019-03-03T05:25:18.702Z,7.48
2019-03-03T05:26:18.693Z,7.52
2019-03-03T05:27:18.680Z,7.45
2019-03-03T05:28:18.668Z,7.53
2019-03-03T05:29:18.660Z,7.57
2019-03-03T05:30:18.681Z,7.61
2019-03-03T05:31:18.635Z,7.60
2019-03-03T05:32:18.623Z,7.60
2019-03-03T05:33:18.616Z,7.60
2019-03-03T05:34:18.607Z,7.58
2019-03-03T05:35:18.592Z,7.58
2019-03-03T05:36:18.619Z,7.60
2019-03-03T05:37:18.572Z,7.61
2019-03-03T05:38:18.559Z,7.55
2019-03-03T05:39:18.549Z,7.55
2019-03-03T05:40:18.540Z,7.58
2019-03-03T05:41:18.527Z,7.63
2019-03-03T05:42:18.559Z,7.60
2019-03-03T05:43:18.508Z,7.74
2019-03-03T05:44:18.496Z,7.64
2019-03-03T05:45:18.484Z,7.60
2019-03-03T05:46:18.476Z,7.67
2019-03-03T05:47:18.465Z,7.61
2019-03-03T05:48:18.491Z,7.63
2019-03-03T05:49:18.445Z,7.57
2019-03-03T05:50:18.431Z,7.60
2019-03-03T05:51:18.422Z,7.67
2019-03-03T05:52:18.412Z,7.60
2019-03-03T05:53:18.400Z,7.58
2019-03-03T05:54:18.425Z,7.74
2019-03-03T05:55:18.379Z,7.63
2019-03-03T05:56:19.058Z,7.71
2019-03-03T05:57:18.357Z,7.68
2019-03-03T05:58:18.348Z,7.82
2019-03-03T05:59:18.343Z,7.80
2019-03-03T06:00:18.367Z,7.79
2019-03-03T06:01:18.312Z,7.89
2019-03-03T06:02:18.303Z,7.77
2019-03-03T06:03:18.291Z,7.75
2019-03-03T06:04:18.283Z,7.80
2019-03-03T06:05:18.272Z,7.80
2019-03-03T06:06:18.296Z,7.85
2019-03-03T06:07:18.254Z,7.79
2019-03-03T06:08:18.239Z,7.86
2019-03-03T06:09:18.228Z,7.87
2019-03-03T06:10:18.244Z,7.95
2019-03-03T06:11:18.210Z,7.93
2019-03-03T06:12:18.233Z,7.90
2019-03-03T06:13:18.184Z,7.95
2019-03-03T06:14:18.179Z,7.97
2019-03-03T06:15:18.163Z,7.98
2019-03-03T06:16:18.154Z,8.05
2019-03-03T06:17:18.142Z,8.08
2019-03-03T06:18:18.167Z,8.11
2019-03-03T06:19:18.126Z,8.11
2019-03-03T06:20:18.109Z,8.15
2019-03-03T06:21:18.125Z,8.19
2019-03-03T06:22:18.094Z,8.04
2019-03-03T06:23:18.080Z,8.20
2019-03-03T06:24:18.102Z,8.16
2019-03-03T06:25:25.088Z,8.15
2019-03-03T06:26:18.044Z,8.23
2019-03-03T06:27:18.034Z,8.25
2019-03-03T06:28:18.026Z,8.18
2019-03-03T06:29:18.010Z,8.30
2019-03-03T06:30:18.038Z,8.29
2019-03-03T06:31:17.989Z,8.36
2019-03-03T06:32:17.978Z,8.36
2019-03-03T06:33:17.968Z,8.43
2019-03-03T06:34:17.960Z,8.41
2019-03-03T06:35:17.948Z,8.48
2019-03-03T06:36:17.971Z,8.45
2019-03-03T06:37:17.924Z,8.56
2019-03-03T06:38:17.911Z,8.43
2019-03-03T06:39:17.902Z,8.59
2019-03-03T06:40:17.930Z,8.56
2019-03-03T06:41:17.878Z,8.61
2019-03-03T06:42:17.907Z,8.63
2019-03-03T06:43:17.854Z,8.62
2019-03-03T06:44:17.847Z,8.62
2019-03-03T06:45:17.833Z,8.66
2019-03-03T06:46:17.821Z,8.68
2019-03-03T06:47:17.812Z,8.68
2019-03-03T06:48:17.837Z,8.80
2019-03-03T06:49:17.789Z,8.71
2019-03-03T06:50:17.778Z,8.79
2019-03-03T06:51:17.767Z,8.74
2019-03-03T06:52:17.757Z,8.84
2019-03-03T06:53:17.744Z,8.84
2019-03-03T06:54:17.773Z,8.89
2019-03-03T06:55:17.723Z,8.83
2019-03-03T06:56:17.711Z,8.89
2019-03-03T06:57:17.704Z,8.91
2019-03-03T06:58:17.689Z,8.95
2019-03-03T06:59:17.678Z,8.84
2019-03-03T07:00:17.708Z,8.98
2019-03-03T07:01:17.655Z,9.05
2019-03-03T07:02:17.647Z,9.11
2019-03-03T07:03:17.637Z,9.08
2019-03-03T07:04:17.623Z,9.13
2019-03-03T07:05:17.611Z,9.02
2019-03-03T07:06:17.638Z,9.05
2019-03-03T07:07:17.591Z,9.14
2019-03-03T07:08:17.578Z,9.14
2019-03-03T07:09:17.569Z,9.10
2019-03-03T07:10:17.562Z,9.14
2019-03-03T07:11:17.549Z,9.21
2019-03-03T07:12:17.573Z,9.28
2019-03-03T07:13:17.523Z,9.18
2019-03-03T07:14:17.513Z,9.31
2019-03-03T07:15:17.502Z,9.26
2019-03-03T07:16:17.493Z,9.33
2019-03-03T07:17:17.481Z,9.36
2019-03-03T07:18:17.510Z,9.36
2019-03-03T07:19:17.463Z,9.38
2019-03-03T07:20:17.449Z,9.46
2019-03-03T07:21:17.438Z,9.39
2019-03-03T07:22:17.429Z,9.40
2019-03-03T07:23:17.419Z,9.38
2019-03-03T07:24:17.441Z,9.54
2019-03-03T07:25:17.396Z,9.53
2019-03-03T07:26:17.385Z,9.51
2019-03-03T07:27:17.372Z,9.53
2019-03-03T07:28:17.382Z,9.53
2019-03-03T07:29:17.351Z,9.60
2019-03-03T07:30:17.382Z,9.61
2019-03-03T07:31:17.329Z,9.54
2019-03-03T07:32:17.318Z,9.68
2019-03-03T07:33:17.306Z,9.69
2019-03-03T07:34:17.296Z,9.66
2019-03-03T07:35:17.285Z,9.71
2019-03-03T07:36:17.312Z,9.72
2019-03-03T07:37:17.266Z,9.74
2019-03-03T07:38:17.253Z,9.75
2019-03-03T07:39:17.243Z,9.87
2019-03-03T07:40:17.231Z,9.72
2019-03-03T07:41:17.222Z,9.76
2019-03-03T07:42:17.245Z,9.87
2019-03-03T07:43:17.197Z,9.83
2019-03-03T07:44:17.189Z,9.83
2019-03-03T07:45:17.176Z,9.75
2019-03-03T07:46:17.167Z,9.90
2019-03-03T07:47:17.155Z,9.93
2019-03-03T07:48:17.180Z,9.84
2019-03-03T07:49:17.133Z,9.89
2019-03-03T07:50:17.124Z,9.84
2019-03-03T07:51:17.110Z,9.90
2019-03-03T07:52:17.100Z,9.84
2019-03-03T07:53:17.099Z,9.96
2019-03-03T07:54:17.114Z,9.87
2019-03-03T07:55:17.067Z,10.05
2019-03-03T07:56:17.055Z,9.96
2019-03-03T07:57:17.045Z,10.07
2019-03-03T07:58:17.036Z,10.05
2019-03-03T07:59:17.023Z,10.11
2019-03-03T08:00:17.050Z,10.05
2019-03-03T08:01:17.001Z,10.18
2019-03-03T08:02:16.990Z,10.15
2019-03-03T08:03:17.035Z,10.14
2019-03-03T08:04:17.006Z,10.18
2019-03-03T08:05:16.963Z,10.30
2019-03-03T08:06:16.983Z,10.29
2019-03-03T08:07:16.935Z,10.27
2019-03-03T08:08:16.928Z,10.30
2019-03-03T08:09:16.914Z,10.30
2019-03-03T08:10:16.902Z,10.26
2019-03-03T08:11:16.926Z,10.32
2019-03-03T08:12:16.928Z,10.40
2019-03-03T08:13:16.869Z,10.42
2019-03-03T08:14:16.859Z,10.40
2019-03-03T08:15:16.851Z,10.47
2019-03-03T08:16:16.838Z,10.47
2019-03-03T08:17:16.826Z,10.51
2019-03-03T08:18:16.865Z,10.48
2019-03-03T08:19:16.803Z,10.64
2019-03-03T08:20:16.791Z,10.70
2019-03-03T08:21:16.781Z,10.66
2019-03-03T08:22:16.772Z,10.71
2019-03-03T08:23:16.758Z,10.74
2019-03-03T08:24:16.787Z,10.78
2019-03-03T08:25:16.738Z,10.67
2019-03-03T08:26:16.726Z,10.76
2019-03-03T08:27:16.716Z,10.76
2019-03-03T08:28:16.705Z,10.78
2019-03-03T08:29:16.694Z,10.85
2019-03-03T08:30:16.719Z,10.81
2019-03-03T08:31:16.672Z,10.78
2019-03-03T08:32:16.662Z,10.86
2019-03-03T08:33:16.650Z,11.00
2019-03-03T08:34:16.639Z,10.99
2019-03-03T08:35:16.628Z,10.92
2019-03-03T08:36:16.653Z,10.97
2019-03-03T08:37:16.606Z,11.00
2019-03-03T08:38:16.596Z,10.94
2019-03-03T08:39:16.593Z,11.02
2019-03-03T08:40:16.573Z,10.94
2019-03-03T08:41:16.560Z,10.97
2019-03-03T08:42:16.586Z,11.00
2019-03-03T08:43:16.541Z,10.99
2019-03-03T08:44:16.527Z,10.94
2019-03-03T08:45:16.516Z,11.03
2019-03-03T08:46:16.507Z,10.88
2019-03-03T08:47:16.495Z,11.09
2019-03-03T08:48:16.522Z,11.00
2019-03-03T08:49:16.471Z,10.99
2019-03-03T08:50:16.460Z,11.10
2019-03-03T08:51:16.449Z,11.15
2019-03-03T08:52:16.438Z,10.96
2019-03-03T08:53:16.428Z,11.15
2019-03-03T08:54:16.453Z,11.02
2019-03-03T08:55:16.406Z,11.00
2019-03-03T08:56:16.395Z,11.06
2019-03-03T08:57:16.380Z,11.04
2019-03-03T08:58:16.370Z,10.97
2019-03-03T08:59:16.363Z,11.11
2019-03-03T09:00:18.168Z,11.06
2019-03-03T09:01:16.338Z,11.14
2019-03-03T09:02:16.328Z,10.96
2019-03-03T09:03:16.315Z,10.97
2019-03-03T09:04:16.305Z,10.97
2019-03-03T09:05:16.292Z,10.97
2019-03-03T09:06:16.357Z,10.92
2019-03-03T09:07:16.270Z,10.97
2019-03-03T09:08:16.258Z,10.97
2019-03-03T09:09:16.247Z,10.96
2019-03-03T09:10:25.192Z,10.96
2019-03-03T09:11:17.259Z,10.92
2019-03-03T09:12:16.214Z,11.00
2019-03-03T09:13:16.203Z,11.03
2019-03-03T09:14:16.193Z,10.91
2019-03-03T09:15:16.182Z,10.99
2019-03-03T09:16:16.172Z,10.94
2019-03-03T09:17:16.198Z,11.00
2019-03-03T09:18:16.146Z,10.99
2019-03-03T09:19:16.137Z,11.02
2019-03-03T09:20:16.126Z,11.00
2019-03-03T09:21:16.112Z,10.96
2019-03-03T09:22:16.101Z,10.92
2019-03-03T09:23:16.129Z,10.96
2019-03-03T09:24:16.082Z,10.96
2019-03-03T09:25:16.068Z,11.10
2019-03-03T09:26:16.060Z,10.97
2019-03-03T09:27:16.048Z,11.00
2019-03-03T09:28:16.037Z,11.07
2019-03-03T09:29:16.058Z,11.03
2019-03-03T09:30:16.012Z,11.02
2019-03-03T09:31:16.001Z,11.02
2019-03-03T09:32:15.991Z,11.15
2019-03-03T09:33:15.981Z,11.11
2019-03-03T09:34:15.968Z,11.15
2019-03-03T09:35:15.994Z,11.24
2019-03-03T09:36:15.945Z,11.21
2019-03-03T09:37:15.938Z,11.19
2019-03-03T09:38:15.923Z,11.24
2019-03-03T09:39:15.911Z,11.29
2019-03-03T09:40:15.905Z,11.22
2019-03-03T09:41:15.925Z,11.27
2019-03-03T09:42:15.878Z,11.24
2019-03-03T09:43:15.870Z,11.33
2019-03-03T09:44:15.857Z,11.36
2019-03-03T09:45:15.844Z,11.36
2019-03-03T09:46:15.836Z,11.35
2019-03-03T09:47:15.862Z,11.33
2019-03-03T09:48:15.811Z,11.49
2019-03-03T09:49:17.257Z,11.35
2019-03-03T09:50:15.790Z,11.42
2019-03-03T09:51:15.776Z,11.42
2019-03-03T09:52:15.767Z,11.36
2019-03-03T09:53:15.793Z,11.40
2019-03-03T09:54:15.744Z,11.51
2019-03-03T09:55:15.736Z,11.46
2019-03-03T09:56:15.723Z,11.43
2019-03-03T09:57:15.710Z,11.46
2019-03-03T09:58:15.699Z,11.42
2019-03-03T09:59:15.726Z,11.35
2019-03-03T10:00:15.678Z,11.43
2019-03-03T10:01:15.667Z,11.35
2019-03-03T10:02:15.657Z,11.36
2019-03-03T10:03:15.647Z,11.32
2019-03-03T10:04:15.634Z,11.42
2019-03-03T10:05:15.658Z,11.39
2019-03-03T10:06:15.612Z,11.39
2019-03-03T10:07:15.609Z,11.33
2019-03-03T10:08:15.591Z,11.40
2019-03-03T10:09:15.578Z,11.36
2019-03-03T10:10:15.565Z,11.47
2019-03-03T10:11:15.592Z,11.40
2019-03-03T10:12:15.549Z,11.44
2019-03-03T10:13:15.533Z,11.46
2019-03-03T10:14:15.531Z,11.39
2019-03-03T10:15:15.514Z,11.43
2019-03-03T10:16:15.501Z,11.39
2019-03-03T10:17:15.526Z,11.42
2019-03-03T10:18:15.481Z,11.39
2019-03-03T10:19:15.466Z,11.43
2019-03-03T10:20:15.456Z,11.40
2019-03-03T10:21:15.456Z,11.42
2019-03-03T10:22:15.437Z,11.40
2019-03-03T10:23:15.461Z,11.39
2019-03-03T10:24:15.411Z,11.47
2019-03-03T10:25:15.398Z,11.42
2019-03-03T10:26:15.388Z,11.44
2019-03-03T10:27:15.380Z,11.39
2019-03-03T10:28:15.367Z,11.47
2019-03-03T10:29:15.393Z,11.51
2019-03-03T10:30:15.349Z,11.49
2019-03-03T10:31:15.336Z,11.51
2019-03-03T10:32:15.322Z,11.40
2019-03-03T10:33:15.340Z,11.44
2019-03-03T10:34:15.300Z,11.54
2019-03-03T10:35:15.328Z,11.51
2019-03-03T10:36:15.284Z,11.54
2019-03-03T10:37:15.267Z,11.44
2019-03-03T10:38:15.297Z,11.52
2019-03-03T10:39:15.247Z,11.47
2019-03-03T10:40:15.237Z,11.47
2019-03-03T10:41:15.266Z,11.54
2019-03-03T10:42:15.211Z,11.54
2019-03-03T10:43:15.222Z,11.58
2019-03-03T10:44:15.190Z,11.57
2019-03-03T10:45:15.179Z,11.58
2019-03-03T10:46:15.167Z,11.57
2019-03-03T10:47:15.194Z,11.72
2019-03-03T10:48:15.146Z,11.58
2019-03-03T10:49:15.138Z,11.64
2019-03-03T10:50:15.123Z,11.57
2019-03-03T10:51:15.113Z,11.46
2019-03-03T10:52:15.102Z,11.54
2019-03-03T10:53:15.129Z,11.49
2019-03-03T10:54:15.091Z,11.51
2019-03-03T10:55:15.070Z,11.44
2019-03-03T10:56:15.059Z,11.40
2019-03-03T10:57:15.047Z,11.39
2019-03-03T10:58:15.039Z,11.39
2019-03-03T10:59:15.062Z,11.52
2019-03-03T11:00:15.016Z,11.51
2019-03-03T11:01:15.003Z,11.43
2019-03-03T11:02:14.998Z,11.61
2019-03-03T11:03:14.983Z,11.58
2019-03-03T11:04:15.022Z,11.57
2019-03-03T11:05:14.995Z,11.61
2019-03-03T11:06:14.951Z,11.72
2019-03-03T11:07:14.939Z,11.75
2019-03-03T11:08:14.930Z,11.82
2019-03-03T11:09:14.918Z,11.80
2019-03-03T11:10:14.908Z,11.82
2019-03-03T11:11:14.936Z,11.75
2019-03-03T11:12:14.888Z,11.76
2019-03-03T11:13:14.874Z,11.80
2019-03-03T11:14:14.866Z,11.80
2019-03-03T11:15:18.493Z,11.75
2019-03-03T11:16:14.842Z,11.82
2019-03-03T11:17:14.868Z,11.83
2019-03-03T11:18:14.824Z,11.83
2019-03-03T11:19:14.809Z,11.82
2019-03-03T11:20:14.796Z,11.86
2019-03-03T11:21:14.786Z,11.91
2019-03-03T11:22:14.778Z,11.82
2019-03-03T11:23:14.806Z,11.86
2019-03-03T11:24:14.755Z,11.83
2019-03-03T11:25:14.752Z,11.88
2019-03-03T11:26:14.734Z,11.88
2019-03-03T11:27:14.723Z,11.94
2019-03-03T11:28:23.531Z,11.90
2019-03-03T11:29:15.735Z,11.88
2019-03-03T11:30:14.690Z,11.95
2019-03-03T11:31:14.679Z,11.98
2019-03-03T11:32:14.667Z,11.86
2019-03-03T11:33:14.664Z,11.94
2019-03-03T11:34:14.648Z,11.91
2019-03-03T11:35:14.754Z,11.91
2019-03-03T11:36:14.624Z,11.95
2019-03-03T11:37:14.612Z,12.10
2019-03-03T11:38:14.604Z,12.09
2019-03-03T11:39:14.594Z,12.07
2019-03-03T11:40:14.583Z,12.01
2019-03-03T11:41:14.617Z,12.07
2019-03-03T11:42:14.572Z,12.04
2019-03-03T11:43:14.551Z,12.12
2019-03-03T11:44:14.569Z,12.05
2019-03-03T11:45:14.528Z,12.09
2019-03-03T11:46:14.528Z,12.07
2019-03-03T11:47:14.546Z,12.10
2019-03-03T11:48:14.494Z,12.04
2019-03-03T11:49:14.482Z,12.01
2019-03-03T11:50:14.489Z,11.94
2019-03-03T11:51:14.462Z,11.94
2019-03-03T11:52:16.630Z,11.94
2019-03-03T11:53:14.479Z,11.94
2019-03-03T11:54:14.428Z,12.01
2019-03-03T11:55:14.419Z,11.90
2019-03-03T11:56:14.411Z,11.85
2019-03-03T11:57:14.397Z,11.99
2019-03-03T11:58:14.385Z,11.82
2019-03-03T11:59:14.412Z,11.83
2019-03-03T12:00:14.364Z,11.78
2019-03-03T12:01:14.354Z,11.76
2019-03-03T12:02:14.343Z,11.85
2019-03-03T12:03:14.334Z,11.83
2019-03-03T12:04:14.322Z,11.80
2019-03-03T12:05:14.347Z,11.64
2019-03-03T12:06:14.298Z,11.73
2019-03-03T12:07:14.286Z,11.62
2019-03-03T12:08:14.278Z,11.64
2019-03-03T12:09:14.274Z,11.65
2019-03-03T12:10:14.257Z,11.64
2019-03-03T12:11:14.964Z,11.75
2019-03-03T12:12:14.234Z,11.58
2019-03-03T12:13:14.666Z,11.54
2019-03-03T12:14:14.213Z,11.60
2019-03-03T12:15:14.202Z,11.62
2019-03-03T12:16:14.193Z,11.60
2019-03-03T12:17:14.218Z,11.57
2019-03-03T12:18:14.168Z,11.57
2019-03-03T12:19:14.157Z,11.61
2019-03-03T12:20:14.146Z,11.57
2019-03-03T12:21:14.139Z,11.52
2019-03-03T12:22:14.126Z,11.65
2019-03-03T12:23:14.153Z,11.60
2019-03-03T12:24:14.103Z,11.54
2019-03-03T12:25:14.091Z,11.57
2019-03-03T12:26:14.081Z,11.57
2019-03-03T12:27:14.077Z,11.57
2019-03-03T12:28:14.058Z,11.58
2019-03-03T12:29:14.086Z,11.58
2019-03-03T12:30:14.041Z,11.54
2019-03-03T12:31:14.026Z,11.57
2019-03-03T12:32:14.016Z,11.61
2019-03-03T12:33:14.012Z,11.58
2019-03-03T12:34:13.993Z,11.57
2019-03-03T12:35:14.020Z,11.57
2019-03-03T12:36:13.971Z,11.51
2019-03-03T12:37:13.960Z,11.46
2019-03-03T12:38:13.953Z,11.46
2019-03-03T12:39:13.939Z,11.44
2019-03-03T12:40:13.931Z,11.51
2019-03-03T12:41:13.954Z,11.47
2019-03-03T12:42:13.905Z,11.47
2019-03-03T12:43:13.897Z,11.60
2019-03-03T12:44:13.929Z,11.44
2019-03-03T12:45:13.926Z,11.55
2019-03-03T12:46:13.861Z,11.49
2019-03-03T12:47:13.918Z,11.58
2019-03-03T12:48:13.843Z,11.44
2019-03-03T12:49:13.828Z,11.54
2019-03-03T12:50:13.820Z,11.60
2019-03-03T12:51:13.806Z,11.55
2019-03-03T12:52:13.795Z,11.58
2019-03-03T12:53:13.822Z,11.57
2019-03-03T12:54:13.773Z,11.58
2019-03-03T12:55:13.762Z,11.60
2019-03-03T12:56:13.752Z,11.78
2019-03-03T12:57:13.740Z,11.61
2019-03-03T12:58:13.730Z,11.58
2019-03-03T12:59:13.755Z,11.69
2019-03-03T13:00:13.707Z,11.69
2019-03-03T13:01:13.701Z,11.64
2019-03-03T13:02:13.688Z,11.64
2019-03-03T13:03:13.674Z,11.62
2019-03-03T13:04:13.664Z,11.64
2019-03-03T13:05:13.693Z,11.62
2019-03-03T13:06:13.654Z,11.64
2019-03-03T13:07:13.635Z,11.64
2019-03-03T13:08:13.621Z,11.61